sensor_id;sensor_type;location;lat;lon;timestamp;P1;durP1;ratioP1;P2;durP2;ratioP2
11238;SDS011;5677;48.488;13.436;2023-06-10T00:00:02;4.20;;;2.70;;
11238;SDS011;5677;48.488;13.436;2023-06-10T00:02:30;3.33;;;3.00;;
11238;SDS011;5677;48.488;13.436;2023-06-10T00:04:57;3.03;;;2.73;;
11238;SDS011;5677;48.488;13.436;2023-06-10T00:07:24;3.13;;;2.83;;
11238;SDS011;5677;48.488;13.436;2023-06-10T00:09:52;4.80;;;2.80;;
11238;SDS011;5677;48.488;13.436;2023-06-10T00:12:20;3.17;;;2.87;;
11238;SDS011;5677;48.488;13.436;2023-06-10T00:14:47;5.77;;;2.90;;
11238;SDS011;5677;48.488;13.436;2023-06-10T00:17:15;3.83;;;3.17;;
11238;SDS011;5677;48.488;13.436;2023-06-10T00:19:42;4.13;;;2.97;;
11238;SDS011;5677;48.488;13.436;2023-06-10T00:22:08;3.57;;;2.83;;
11238;SDS011;5677;48.488;13.436;2023-06-10T00:24:35;4.13;;;3.00;;
11238;SDS011;5677;48.488;13.436;2023-06-10T00:27:04;5.60;;;3.03;;
11238;SDS011;5677;48.488;13.436;2023-06-10T00:29:31;2.90;;;2.70;;
11238;SDS011;5677;48.488;13.436;2023-06-10T00:31:58;3.00;;;2.73;;
11238;SDS011;5677;48.488;13.436;2023-06-10T00:34:25;3.40;;;3.10;;
11238;SDS011;5677;48.488;13.436;2023-06-10T00:36:52;3.67;;;2.77;;
11238;SDS011;5677;48.488;13.436;2023-06-10T00:39:18;3.97;;;2.63;;
11238;SDS011;5677;48.488;13.436;2023-06-10T00:41:45;2.57;;;2.37;;
11238;SDS011;5677;48.488;13.436;2023-06-10T00:44:13;2.77;;;2.47;;
11238;SDS011;5677;48.488;13.436;2023-06-10T00:46:40;3.77;;;2.70;;
11238;SDS011;5677;48.488;13.436;2023-06-10T00:49:07;3.33;;;2.57;;
11238;SDS011;5677;48.488;13.436;2023-06-10T00:51:34;3.13;;;2.70;;
11238;SDS011;5677;48.488;13.436;2023-06-10T00:54:01;2.80;;;2.60;;
11238;SDS011;5677;48.488;13.436;2023-06-10T00:56:28;3.00;;;2.70;;
11238;SDS011;5677;48.488;13.436;2023-06-10T00:58:55;3.73;;;2.70;;
11238;SDS011;5677;48.488;13.436;2023-06-10T01:01:23;3.60;;;2.90;;
11238;SDS011;5677;48.488;13.436;2023-06-10T01:03:50;5.37;;;2.87;;
11238;SDS011;5677;48.488;13.436;2023-06-10T01:06:21;3.23;;;2.93;;
11238;SDS011;5677;48.488;13.436;2023-06-10T01:08:55;3.10;;;2.80;;
11238;SDS011;5677;48.488;13.436;2023-06-10T01:11:28;2.80;;;2.60;;
11238;SDS011;5677;48.488;13.436;2023-06-10T01:14:02;2.83;;;2.57;;
11238;SDS011;5677;48.488;13.436;2023-06-10T01:16:33;3.10;;;2.60;;
11238;SDS011;5677;48.488;13.436;2023-06-10T01:19:01;2.53;;;2.33;;
11238;SDS011;5677;48.488;13.436;2023-06-10T01:21:30;2.70;;;2.50;;
11238;SDS011;5677;48.488;13.436;2023-06-10T01:23:57;3.00;;;2.20;;
11238;SDS011;5677;48.488;13.436;2023-06-10T01:26:25;3.63;;;2.90;;
11238;SDS011;5677;48.488;13.436;2023-06-10T01:28:57;4.77;;;2.93;;
11238;SDS011;5677;48.488;13.436;2023-06-10T01:31:31;2.73;;;2.37;;
11238;SDS011;5677;48.488;13.436;2023-06-10T01:34:08;3.10;;;2.90;;
11238;SDS011;5677;48.488;13.436;2023-06-10T01:36:39;3.00;;;2.80;;
11238;SDS011;5677;48.488;13.436;2023-06-10T01:39:07;2.90;;;2.67;;
11238;SDS011;5677;48.488;13.436;2023-06-10T01:41:36;2.97;;;2.60;;
11238;SDS011;5677;48.488;13.436;2023-06-10T01:44:04;3.20;;;2.90;;
11238;SDS011;5677;48.488;13.436;2023-06-10T01:46:30;2.90;;;2.70;;
11238;SDS011;5677;48.488;13.436;2023-06-10T01:48:57;4.90;;;2.57;;
11238;SDS011;5677;48.488;13.436;2023-06-10T01:51:24;3.00;;;2.60;;
11238;SDS011;5677;48.488;13.436;2023-06-10T01:53:52;2.53;;;2.33;;
11238;SDS011;5677;48.488;13.436;2023-06-10T01:56:19;6.47;;;2.83;;
11238;SDS011;5677;48.488;13.436;2023-06-10T01:58:45;2.80;;;2.60;;
11238;SDS011;5677;48.488;13.436;2023-06-10T02:01:13;3.37;;;2.63;;
11238;SDS011;5677;48.488;13.436;2023-06-10T02:03:40;2.90;;;2.43;;
11238;SDS011;5677;48.488;13.436;2023-06-10T02:06:07;3.30;;;2.57;;
11238;SDS011;5677;48.488;13.436;2023-06-10T02:08:33;3.53;;;2.67;;
11238;SDS011;5677;48.488;13.436;2023-06-10T02:11:01;3.80;;;2.60;;
11238;SDS011;5677;48.488;13.436;2023-06-10T02:13:28;2.87;;;2.60;;
11238;SDS011;5677;48.488;13.436;2023-06-10T02:15:55;2.67;;;2.47;;
11238;SDS011;5677;48.488;13.436;2023-06-10T02:18:22;3.00;;;2.70;;
11238;SDS011;5677;48.488;13.436;2023-06-10T02:20:48;3.00;;;2.60;;
11238;SDS011;5677;48.488;13.436;2023-06-10T02:23:15;2.80;;;2.60;;
11238;SDS011;5677;48.488;13.436;2023-06-10T02:25:42;2.50;;;2.30;;
11238;SDS011;5677;48.488;13.436;2023-06-10T02:28:10;2.80;;;2.40;;
11238;SDS011;5677;48.488;13.436;2023-06-10T02:30:38;2.53;;;2.33;;
11238;SDS011;5677;48.488;13.436;2023-06-10T02:33:06;3.47;;;2.93;;
11238;SDS011;5677;48.488;13.436;2023-06-10T02:35:35;3.93;;;2.60;;
11238;SDS011;5677;48.488;13.436;2023-06-10T02:38:02;2.50;;;2.30;;
11238;SDS011;5677;48.488;13.436;2023-06-10T02:40:29;2.77;;;2.47;;
11238;SDS011;5677;48.488;13.436;2023-06-10T02:42:55;3.40;;;2.77;;
11238;SDS011;5677;48.488;13.436;2023-06-10T02:45:24;3.47;;;2.57;;
11238;SDS011;5677;48.488;13.436;2023-06-10T02:47:51;2.63;;;2.43;;
11238;SDS011;5677;48.488;13.436;2023-06-10T02:50:17;2.67;;;2.47;;
11238;SDS011;5677;48.488;13.436;2023-06-10T02:52:44;3.73;;;2.60;;
11238;SDS011;5677;48.488;13.436;2023-06-10T02:55:11;2.73;;;2.40;;
11238;SDS011;5677;48.488;13.436;2023-06-10T02:57:38;3.00;;;2.70;;
11238;SDS011;5677;48.488;13.436;2023-06-10T03:00:05;3.23;;;2.43;;
11238;SDS011;5677;48.488;13.436;2023-06-10T03:02:37;2.90;;;2.60;;
11238;SDS011;5677;48.488;13.436;2023-06-10T03:05:04;3.30;;;2.47;;
11238;SDS011;5677;48.488;13.436;2023-06-10T03:07:34;3.03;;;2.30;;
11238;SDS011;5677;48.488;13.436;2023-06-10T03:10:01;2.53;;;2.33;;
11238;SDS011;5677;48.488;13.436;2023-06-10T03:12:29;2.70;;;2.20;;
11238;SDS011;5677;48.488;13.436;2023-06-10T03:14:55;4.70;;;2.70;;
11238;SDS011;5677;48.488;13.436;2023-06-10T03:17:22;2.70;;;2.50;;
11238;SDS011;5677;48.488;13.436;2023-06-10T03:19:50;2.57;;;2.37;;
11238;SDS011;5677;48.488;13.436;2023-06-10T03:22:17;2.83;;;2.50;;
11238;SDS011;5677;48.488;13.436;2023-06-10T03:24:44;2.63;;;2.43;;
11238;SDS011;5677;48.488;13.436;2023-06-10T03:27:11;2.47;;;2.27;;
11238;SDS011;5677;48.488;13.436;2023-06-10T03:29:38;2.63;;;2.43;;
11238;SDS011;5677;48.488;13.436;2023-06-10T03:32:06;2.60;;;2.40;;
11238;SDS011;5677;48.488;13.436;2023-06-10T03:34:33;2.50;;;2.30;;
11238;SDS011;5677;48.488;13.436;2023-06-10T03:37:01;3.47;;;2.60;;
11238;SDS011;5677;48.488;13.436;2023-06-10T03:39:28;2.60;;;2.33;;
11238;SDS011;5677;48.488;13.436;2023-06-10T03:41:55;2.73;;;2.53;;
11238;SDS011;5677;48.488;13.436;2023-06-10T03:44:22;2.97;;;2.30;;
11238;SDS011;5677;48.488;13.436;2023-06-10T03:46:50;2.57;;;2.30;;
11238;SDS011;5677;48.488;13.436;2023-06-10T03:49:16;4.00;;;2.30;;
11238;SDS011;5677;48.488;13.436;2023-06-10T03:51:43;4.63;;;2.40;;
11238;SDS011;5677;48.488;13.436;2023-06-10T03:54:11;2.77;;;2.47;;
11238;SDS011;5677;48.488;13.436;2023-06-10T03:56:38;2.70;;;2.20;;
11238;SDS011;5677;48.488;13.436;2023-06-10T03:59:05;2.50;;;2.30;;
11238;SDS011;5677;48.488;13.436;2023-06-10T04:01:32;2.37;;;2.17;;
11238;SDS011;5677;48.488;13.436;2023-06-10T04:04:00;2.33;;;2.13;;
11238;SDS011;5677;48.488;13.436;2023-06-10T04:06:27;3.37;;;2.20;;
11238;SDS011;5677;48.488;13.436;2023-06-10T04:08:54;2.50;;;2.30;;
11238;SDS011;5677;48.488;13.436;2023-06-10T04:11:23;2.70;;;2.50;;
11238;SDS011;5677;48.488;13.436;2023-06-10T04:13:50;3.07;;;2.67;;
11238;SDS011;5677;48.488;13.436;2023-06-10T04:16:17;2.70;;;2.50;;
11238;SDS011;5677;48.488;13.436;2023-06-10T04:18:44;2.40;;;2.20;;
11238;SDS011;5677;48.488;13.436;2023-06-10T04:21:10;2.47;;;2.27;;
11238;SDS011;5677;48.488;13.436;2023-06-10T04:23:37;2.67;;;2.47;;
11238;SDS011;5677;48.488;13.436;2023-06-10T04:26:04;2.70;;;2.50;;
11238;SDS011;5677;48.488;13.436;2023-06-10T04:28:33;2.30;;;2.10;;
11238;SDS011;5677;48.488;13.436;2023-06-10T04:31:01;2.60;;;2.40;;
11238;SDS011;5677;48.488;13.436;2023-06-10T04:33:29;2.37;;;2.17;;
11238;SDS011;5677;48.488;13.436;2023-06-10T04:35:56;3.40;;;2.33;;
11238;SDS011;5677;48.488;13.436;2023-06-10T04:38:23;2.53;;;2.20;;
11238;SDS011;5677;48.488;13.436;2023-06-10T04:40:49;2.30;;;2.10;;
11238;SDS011;5677;48.488;13.436;2023-06-10T04:43:16;2.43;;;2.10;;
11238;SDS011;5677;48.488;13.436;2023-06-10T04:45:44;2.30;;;2.20;;
11238;SDS011;5677;48.488;13.436;2023-06-10T04:48:12;3.87;;;2.27;;
11238;SDS011;5677;48.488;13.436;2023-06-10T04:50:38;2.57;;;1.97;;
11238;SDS011;5677;48.488;13.436;2023-06-10T04:53:05;2.33;;;2.10;;
11238;SDS011;5677;48.488;13.436;2023-06-10T04:55:32;2.37;;;2.17;;
11238;SDS011;5677;48.488;13.436;2023-06-10T04:57:59;3.17;;;2.30;;
11238;SDS011;5677;48.488;13.436;2023-06-10T05:00:26;2.30;;;2.07;;
11238;SDS011;5677;48.488;13.436;2023-06-10T05:02:54;2.30;;;2.10;;
11238;SDS011;5677;48.488;13.436;2023-06-10T05:05:21;2.70;;;2.50;;
11238;SDS011;5677;48.488;13.436;2023-06-10T05:07:47;2.53;;;2.33;;
11238;SDS011;5677;48.488;13.436;2023-06-10T05:10:14;2.93;;;2.10;;
11238;SDS011;5677;48.488;13.436;2023-06-10T05:12:41;2.67;;;2.10;;
11238;SDS011;5677;48.488;13.436;2023-06-10T05:15:08;2.30;;;2.07;;
11238;SDS011;5677;48.488;13.436;2023-06-10T05:17:36;2.80;;;2.17;;
11238;SDS011;5677;48.488;13.436;2023-06-10T05:20:04;2.67;;;2.10;;
11238;SDS011;5677;48.488;13.436;2023-06-10T05:22:32;2.30;;;2.10;;
11238;SDS011;5677;48.488;13.436;2023-06-10T05:24:59;2.67;;;2.20;;
11238;SDS011;5677;48.488;13.436;2023-06-10T05:27:26;2.67;;;2.17;;
11238;SDS011;5677;48.488;13.436;2023-06-10T05:29:53;3.17;;;2.17;;
11238;SDS011;5677;48.488;13.436;2023-06-10T05:32:19;3.23;;;2.13;;
11238;SDS011;5677;48.488;13.436;2023-06-10T05:34:46;2.80;;;2.10;;
11238;SDS011;5677;48.488;13.436;2023-06-10T05:37:14;2.10;;;1.90;;
11238;SDS011;5677;48.488;13.436;2023-06-10T05:39:41;2.50;;;2.30;;
11238;SDS011;5677;48.488;13.436;2023-06-10T05:42:07;2.27;;;2.10;;
11238;SDS011;5677;48.488;13.436;2023-06-10T05:44:35;2.20;;;2.10;;
11238;SDS011;5677;48.488;13.436;2023-06-10T05:47:02;2.60;;;2.40;;
11238;SDS011;5677;48.488;13.436;2023-06-10T05:49:29;2.33;;;2.13;;
11238;SDS011;5677;48.488;13.436;2023-06-10T05:51:56;3.07;;;2.30;;
11238;SDS011;5677;48.488;13.436;2023-06-10T05:54:25;2.70;;;2.40;;
11238;SDS011;5677;48.488;13.436;2023-06-10T05:56:52;2.30;;;2.13;;
11238;SDS011;5677;48.488;13.436;2023-06-10T05:59:19;2.67;;;2.00;;
11238;SDS011;5677;48.488;13.436;2023-06-10T06:01:47;2.83;;;2.63;;
11238;SDS011;5677;48.488;13.436;2023-06-10T06:04:14;3.80;;;2.90;;
11238;SDS011;5677;48.488;13.436;2023-06-10T06:06:41;4.07;;;3.47;;
11238;SDS011;5677;48.488;13.436;2023-06-10T06:09:08;4.50;;;4.07;;
11238;SDS011;5677;48.488;13.436;2023-06-10T06:11:36;4.33;;;3.93;;
11238;SDS011;5677;48.488;13.436;2023-06-10T06:14:03;5.20;;;4.07;;
11238;SDS011;5677;48.488;13.436;2023-06-10T06:16:29;6.20;;;5.43;;
11238;SDS011;5677;48.488;13.436;2023-06-10T06:18:56;6.17;;;5.57;;
11238;SDS011;5677;48.488;13.436;2023-06-10T06:21:23;5.87;;;5.37;;
11238;SDS011;5677;48.488;13.436;2023-06-10T06:23:50;6.17;;;5.57;;
11238;SDS011;5677;48.488;13.436;2023-06-10T06:26:16;6.53;;;5.70;;
11238;SDS011;5677;48.488;13.436;2023-06-10T06:28:44;6.87;;;6.17;;
11238;SDS011;5677;48.488;13.436;2023-06-10T06:31:11;6.73;;;6.03;;
11238;SDS011;5677;48.488;13.436;2023-06-10T06:33:38;8.20;;;5.50;;
11238;SDS011;5677;48.488;13.436;2023-06-10T06:36:05;6.30;;;5.10;;
11238;SDS011;5677;48.488;13.436;2023-06-10T06:38:32;5.83;;;5.23;;
11238;SDS011;5677;48.488;13.436;2023-06-10T06:40:58;6.33;;;5.73;;
11238;SDS011;5677;48.488;13.436;2023-06-10T06:43:28;6.80;;;5.57;;
11238;SDS011;5677;48.488;13.436;2023-06-10T06:45:57;6.07;;;5.47;;
11238;SDS011;5677;48.488;13.436;2023-06-10T06:48:24;6.00;;;5.40;;
11238;SDS011;5677;48.488;13.436;2023-06-10T06:50:50;6.47;;;5.87;;
11238;SDS011;5677;48.488;13.436;2023-06-10T06:53:17;7.70;;;6.00;;
11238;SDS011;5677;48.488;13.436;2023-06-10T06:55:44;6.73;;;6.13;;
11238;SDS011;5677;48.488;13.436;2023-06-10T06:58:10;7.77;;;6.93;;
11238;SDS011;5677;48.488;13.436;2023-06-10T07:00:37;10.10;;;6.20;;
11238;SDS011;5677;48.488;13.436;2023-06-10T07:03:05;6.60;;;5.80;;
11238;SDS011;5677;48.488;13.436;2023-06-10T07:05:32;10.63;;;6.70;;
11238;SDS011;5677;48.488;13.436;2023-06-10T07:07:58;7.50;;;6.70;;
11238;SDS011;5677;48.488;13.436;2023-06-10T07:10:25;7.40;;;6.50;;
11238;SDS011;5677;48.488;13.436;2023-06-10T07:12:52;7.63;;;6.37;;
11238;SDS011;5677;48.488;13.436;2023-06-10T07:15:19;7.57;;;6.87;;
11238;SDS011;5677;48.488;13.436;2023-06-10T07:17:46;9.20;;;6.40;;
11238;SDS011;5677;48.488;13.436;2023-06-10T07:20:14;7.87;;;7.17;;
11238;SDS011;5677;48.488;13.436;2023-06-10T07:22:41;8.20;;;6.60;;
11238;SDS011;5677;48.488;13.436;2023-06-10T07:25:08;7.43;;;6.73;;
11238;SDS011;5677;48.488;13.436;2023-06-10T07:27:35;9.73;;;7.50;;
11238;SDS011;5677;48.488;13.436;2023-06-10T07:30:02;6.90;;;6.30;;
11238;SDS011;5677;48.488;13.436;2023-06-10T07:32:29;8.33;;;6.20;;
11238;SDS011;5677;48.488;13.436;2023-06-10T07:34:56;8.17;;;6.40;;
11238;SDS011;5677;48.488;13.436;2023-06-10T07:37:25;9.47;;;8.53;;
11238;SDS011;5677;48.488;13.436;2023-06-10T07:39:51;9.27;;;8.37;;
11238;SDS011;5677;48.488;13.436;2023-06-10T07:42:18;8.70;;;7.40;;
11238;SDS011;5677;48.488;13.436;2023-06-10T07:44:45;8.13;;;6.23;;
11238;SDS011;5677;48.488;13.436;2023-06-10T07:47:11;6.83;;;6.10;;
11238;SDS011;5677;48.488;13.436;2023-06-10T07:49:38;8.53;;;6.23;;
11238;SDS011;5677;48.488;13.436;2023-06-10T07:52:07;9.13;;;5.87;;
11238;SDS011;5677;48.488;13.436;2023-06-10T07:54:35;6.97;;;6.33;;
11238;SDS011;5677;48.488;13.436;2023-06-10T07:57:02;6.77;;;6.13;;
11238;SDS011;5677;48.488;13.436;2023-06-10T07:59:29;7.53;;;6.33;;
11238;SDS011;5677;48.488;13.436;2023-06-10T08:01:56;7.43;;;6.63;;
11238;SDS011;5677;48.488;13.436;2023-06-10T08:04:23;7.10;;;6.40;;
11238;SDS011;5677;48.488;13.436;2023-06-10T08:06:49;8.33;;;6.70;;
11238;SDS011;5677;48.488;13.436;2023-06-10T08:09:16;7.83;;;6.80;;
11238;SDS011;5677;48.488;13.436;2023-06-10T08:11:45;7.30;;;6.30;;
11238;SDS011;5677;48.488;13.436;2023-06-10T08:14:12;7.43;;;5.87;;
11238;SDS011;5677;48.488;13.436;2023-06-10T08:16:39;11.23;;;6.33;;
11238;SDS011;5677;48.488;13.436;2023-06-10T08:19:06;7.77;;;5.97;;
11238;SDS011;5677;48.488;13.436;2023-06-10T08:21:34;8.80;;;6.20;;
11238;SDS011;5677;48.488;13.436;2023-06-10T08:24:01;7.83;;;6.50;;
11238;SDS011;5677;48.488;13.436;2023-06-10T08:26:28;9.77;;;5.70;;
11238;SDS011;5677;48.488;13.436;2023-06-10T08:28:56;8.80;;;6.17;;
11238;SDS011;5677;48.488;13.436;2023-06-10T08:31:23;6.80;;;6.10;;
11238;SDS011;5677;48.488;13.436;2023-06-10T08:33:50;9.23;;;6.33;;
11238;SDS011;5677;48.488;13.436;2023-06-10T08:36:16;9.43;;;6.37;;
11238;SDS011;5677;48.488;13.436;2023-06-10T08:38:43;10.10;;;5.77;;
11238;SDS011;5677;48.488;13.436;2023-06-10T08:41:10;9.93;;;6.37;;
11238;SDS011;5677;48.488;13.436;2023-06-10T08:43:42;8.20;;;5.73;;
11238;SDS011;5677;48.488;13.436;2023-06-10T08:46:12;7.53;;;6.20;;
11238;SDS011;5677;48.488;13.436;2023-06-10T08:48:41;8.67;;;5.90;;
11238;SDS011;5677;48.488;13.436;2023-06-10T08:51:09;5.93;;;5.33;;
11238;SDS011;5677;48.488;13.436;2023-06-10T08:53:37;6.73;;;5.50;;
11238;SDS011;5677;48.488;13.436;2023-06-10T08:56:08;6.23;;;5.63;;
11238;SDS011;5677;48.488;13.436;2023-06-10T08:58:36;8.40;;;6.07;;
11238;SDS011;5677;48.488;13.436;2023-06-10T09:01:06;8.13;;;5.73;;
11238;SDS011;5677;48.488;13.436;2023-06-10T09:03:35;8.27;;;6.10;;
11238;SDS011;5677;48.488;13.436;2023-06-10T09:06:04;6.23;;;5.63;;
11238;SDS011;5677;48.488;13.436;2023-06-10T09:08:33;6.90;;;5.33;;
11238;SDS011;5677;48.488;13.436;2023-06-10T09:11:00;6.70;;;5.40;;
11238;SDS011;5677;48.488;13.436;2023-06-10T09:13:27;6.77;;;5.50;;
11238;SDS011;5677;48.488;13.436;2023-06-10T09:15:53;5.57;;;4.93;;
11238;SDS011;5677;48.488;13.436;2023-06-10T09:18:25;6.40;;;5.37;;
11238;SDS011;5677;48.488;13.436;2023-06-10T09:20:53;6.73;;;5.20;;
11238;SDS011;5677;48.488;13.436;2023-06-10T09:23:20;6.80;;;5.63;;
11238;SDS011;5677;48.488;13.436;2023-06-10T09:25:53;8.17;;;5.57;;
11238;SDS011;5677;48.488;13.436;2023-06-10T09:28:22;6.23;;;5.60;;
11238;SDS011;5677;48.488;13.436;2023-06-10T09:30:49;7.83;;;5.17;;
11238;SDS011;5677;48.488;13.436;2023-06-10T09:33:27;6.47;;;5.30;;
11238;SDS011;5677;48.488;13.436;2023-06-10T09:35:55;6.33;;;5.50;;
11238;SDS011;5677;48.488;13.436;2023-06-10T09:38:29;5.73;;;5.13;;
11238;SDS011;5677;48.488;13.436;2023-06-10T09:40:56;6.17;;;5.13;;
11238;SDS011;5677;48.488;13.436;2023-06-10T09:43:23;6.50;;;5.63;;
11238;SDS011;5677;48.488;13.436;2023-06-10T09:46:05;7.03;;;4.87;;
11238;SDS011;5677;48.488;13.436;2023-06-10T09:48:34;8.33;;;5.37;;
11238;SDS011;5677;48.488;13.436;2023-06-10T09:51:02;6.47;;;5.23;;
11238;SDS011;5677;48.488;13.436;2023-06-10T09:53:35;6.70;;;5.10;;
11238;SDS011;5677;48.488;13.436;2023-06-10T09:56:02;6.30;;;5.70;;
11238;SDS011;5677;48.488;13.436;2023-06-10T09:58:35;5.50;;;5.00;;
11238;SDS011;5677;48.488;13.436;2023-06-10T10:01:05;5.80;;;5.20;;
11238;SDS011;5677;48.488;13.436;2023-06-10T10:03:32;5.77;;;5.03;;
11238;SDS011;5677;48.488;13.436;2023-06-10T10:05:59;5.70;;;5.20;;
11238;SDS011;5677;48.488;13.436;2023-06-10T10:08:28;5.23;;;4.63;;
11238;SDS011;5677;48.488;13.436;2023-06-10T10:10:56;5.43;;;4.90;;
11238;SDS011;5677;48.488;13.436;2023-06-10T10:13:24;6.73;;;5.60;;
11238;SDS011;5677;48.488;13.436;2023-06-10T10:15:52;5.73;;;5.00;;
11238;SDS011;5677;48.488;13.436;2023-06-10T10:18:21;5.77;;;5.10;;
11238;SDS011;5677;48.488;13.436;2023-06-10T10:20:53;5.17;;;4.67;;
11238;SDS011;5677;48.488;13.436;2023-06-10T10:23:21;6.10;;;5.30;;
11238;SDS011;5677;48.488;13.436;2023-06-10T10:25:56;5.70;;;5.17;;
11238;SDS011;5677;48.488;13.436;2023-06-10T10:28:27;5.67;;;5.17;;
11238;SDS011;5677;48.488;13.436;2023-06-10T10:31:05;5.27;;;4.77;;
11238;SDS011;5677;48.488;13.436;2023-06-10T10:33:45;5.10;;;4.70;;
11238;SDS011;5677;48.488;13.436;2023-06-10T10:36:21;5.43;;;4.97;;
11238;SDS011;5677;48.488;13.436;2023-06-10T10:38:48;5.50;;;5.00;;
11238;SDS011;5677;48.488;13.436;2023-06-10T10:41:16;6.10;;;4.97;;
11238;SDS011;5677;48.488;13.436;2023-06-10T10:43:45;5.00;;;4.50;;
11238;SDS011;5677;48.488;13.436;2023-06-10T10:46:13;5.63;;;4.77;;
11238;SDS011;5677;48.488;13.436;2023-06-10T10:48:42;6.10;;;5.07;;
11238;SDS011;5677;48.488;13.436;2023-06-10T10:51:10;5.57;;;5.07;;
11238;SDS011;5677;48.488;13.436;2023-06-10T10:53:37;4.50;;;4.10;;
11238;SDS011;5677;48.488;13.436;2023-06-10T10:56:05;7.57;;;4.70;;
11238;SDS011;5677;48.488;13.436;2023-06-10T10:58:34;6.10;;;4.90;;
11238;SDS011;5677;48.488;13.436;2023-06-10T11:01:09;5.53;;;4.90;;
11238;SDS011;5677;48.488;13.436;2023-06-10T11:03:41;5.47;;;4.63;;
11238;SDS011;5677;48.488;13.436;2023-06-10T11:06:11;5.83;;;5.27;;
11238;SDS011;5677;48.488;13.436;2023-06-10T11:08:46;5.37;;;4.90;;
11238;SDS011;5677;48.488;13.436;2023-06-10T11:11:23;5.07;;;4.63;;
11238;SDS011;5677;48.488;13.436;2023-06-10T11:14:04;5.00;;;4.60;;
11238;SDS011;5677;48.488;13.436;2023-06-10T11:16:38;5.30;;;4.80;;
11238;SDS011;5677;48.488;13.436;2023-06-10T11:19:06;5.63;;;4.40;;
11238;SDS011;5677;48.488;13.436;2023-06-10T11:21:37;4.70;;;4.20;;
11238;SDS011;5677;48.488;13.436;2023-06-10T11:24:24;4.87;;;4.37;;
11238;SDS011;5677;48.488;13.436;2023-06-10T11:26:52;5.30;;;4.80;;
11238;SDS011;5677;48.488;13.436;2023-06-10T11:29:20;5.20;;;4.70;;
11238;SDS011;5677;48.488;13.436;2023-06-10T11:31:49;5.10;;;4.53;;
11238;SDS011;5677;48.488;13.436;2023-06-10T11:34:23;5.33;;;4.70;;
11238;SDS011;5677;48.488;13.436;2023-06-10T11:36:52;5.27;;;4.70;;
11238;SDS011;5677;48.488;13.436;2023-06-10T11:39:19;5.03;;;4.53;;
11238;SDS011;5677;48.488;13.436;2023-06-10T11:41:48;6.00;;;4.90;;
11238;SDS011;5677;48.488;13.436;2023-06-10T11:44:16;4.50;;;4.20;;
11238;SDS011;5677;48.488;13.436;2023-06-10T11:46:44;4.80;;;4.40;;
11238;SDS011;5677;48.488;13.436;2023-06-10T11:49:14;6.13;;;4.87;;
11238;SDS011;5677;48.488;13.436;2023-06-10T11:51:41;5.93;;;4.90;;
11238;SDS011;5677;48.488;13.436;2023-06-10T11:54:14;4.83;;;4.37;;
11238;SDS011;5677;48.488;13.436;2023-06-10T11:56:41;4.73;;;4.30;;
11238;SDS011;5677;48.488;13.436;2023-06-10T11:59:07;7.30;;;4.80;;
11238;SDS011;5677;48.488;13.436;2023-06-10T12:01:34;5.13;;;4.63;;
11238;SDS011;5677;48.488;13.436;2023-06-10T12:04:04;4.67;;;4.27;;
11238;SDS011;5677;48.488;13.436;2023-06-10T12:06:38;6.87;;;4.73;;
11238;SDS011;5677;48.488;13.436;2023-06-10T12:09:06;24.23;;;6.30;;
11238;SDS011;5677;48.488;13.436;2023-06-10T12:11:32;33.07;;;6.83;;
11238;SDS011;5677;48.488;13.436;2023-06-10T12:13:59;39.57;;;7.13;;
11238;SDS011;5677;48.488;13.436;2023-06-10T12:16:28;19.67;;;6.17;;
11238;SDS011;5677;48.488;13.436;2023-06-10T12:19:00;11.27;;;5.10;;
11238;SDS011;5677;48.488;13.436;2023-06-10T12:21:30;8.30;;;5.17;;
11238;SDS011;5677;48.488;13.436;2023-06-10T12:24:07;20.17;;;6.40;;
11238;SDS011;5677;48.488;13.436;2023-06-10T12:26:39;31.07;;;6.57;;
11238;SDS011;5677;48.488;13.436;2023-06-10T12:29:16;24.80;;;6.93;;
11238;SDS011;5677;48.488;13.436;2023-06-10T12:31:57;16.50;;;7.03;;
11238;SDS011;5677;48.488;13.436;2023-06-10T12:34:32;9.60;;;5.60;;
11238;SDS011;5677;48.488;13.436;2023-06-10T12:37:02;8.07;;;5.43;;
11238;SDS011;5677;48.488;13.436;2023-06-10T12:39:29;18.73;;;6.00;;
11238;SDS011;5677;48.488;13.436;2023-06-10T12:41:56;11.87;;;6.00;;
11238;SDS011;5677;48.488;13.436;2023-06-10T12:44:30;16.17;;;5.67;;
11238;SDS011;5677;48.488;13.436;2023-06-10T12:46:57;7.20;;;5.67;;
11238;SDS011;5677;48.488;13.436;2023-06-10T12:49:24;11.43;;;5.43;;
11238;SDS011;5677;48.488;13.436;2023-06-10T12:51:51;6.87;;;5.00;;
11238;SDS011;5677;48.488;13.436;2023-06-10T12:54:20;7.67;;;5.47;;
11238;SDS011;5677;48.488;13.436;2023-06-10T12:56:47;6.17;;;4.93;;
11238;SDS011;5677;48.488;13.436;2023-06-10T12:59:13;8.93;;;5.03;;
11238;SDS011;5677;48.488;13.436;2023-06-10T13:01:40;7.57;;;5.10;;
11238;SDS011;5677;48.488;13.436;2023-06-10T13:04:07;5.80;;;5.23;;
11238;SDS011;5677;48.488;13.436;2023-06-10T13:06:34;6.30;;;5.23;;
11238;SDS011;5677;48.488;13.436;2023-06-10T13:09:03;6.83;;;5.20;;
11238;SDS011;5677;48.488;13.436;2023-06-10T13:11:33;6.17;;;4.73;;
11238;SDS011;5677;48.488;13.436;2023-06-10T13:14:01;5.47;;;4.97;;
11238;SDS011;5677;48.488;13.436;2023-06-10T13:16:29;6.00;;;4.73;;
11238;SDS011;5677;48.488;13.436;2023-06-10T13:18:56;5.27;;;4.77;;
11238;SDS011;5677;48.488;13.436;2023-06-10T13:21:23;8.93;;;5.30;;
11238;SDS011;5677;48.488;13.436;2023-06-10T13:23:50;5.20;;;4.63;;
11238;SDS011;5677;48.488;13.436;2023-06-10T13:26:17;6.53;;;5.47;;
11238;SDS011;5677;48.488;13.436;2023-06-10T13:28:45;6.30;;;5.30;;
11238;SDS011;5677;48.488;13.436;2023-06-10T13:31:12;8.03;;;5.50;;
11238;SDS011;5677;48.488;13.436;2023-06-10T13:33:38;5.70;;;5.20;;
11238;SDS011;5677;48.488;13.436;2023-06-10T13:36:05;6.20;;;5.70;;
11238;SDS011;5677;48.488;13.436;2023-06-10T13:38:32;6.70;;;5.00;;
11238;SDS011;5677;48.488;13.436;2023-06-10T13:40:59;6.43;;;5.33;;
11238;SDS011;5677;48.488;13.436;2023-06-10T13:43:26;5.80;;;5.30;;
11238;SDS011;5677;48.488;13.436;2023-06-10T13:45:55;6.27;;;4.90;;
11238;SDS011;5677;48.488;13.436;2023-06-10T13:48:21;6.10;;;5.00;;
11238;SDS011;5677;48.488;13.436;2023-06-10T13:50:48;6.03;;;5.33;;
11238;SDS011;5677;48.488;13.436;2023-06-10T13:53:15;5.87;;;5.37;;
11238;SDS011;5677;48.488;13.436;2023-06-10T13:55:42;6.53;;;5.93;;
11238;SDS011;5677;48.488;13.436;2023-06-10T13:58:08;6.63;;;6.03;;
11238;SDS011;5677;48.488;13.436;2023-06-10T14:00:35;6.20;;;5.70;;
11238;SDS011;5677;48.488;13.436;2023-06-10T14:03:03;7.23;;;6.53;;
11238;SDS011;5677;48.488;13.436;2023-06-10T14:05:30;7.00;;;6.30;;
11238;SDS011;5677;48.488;13.436;2023-06-10T14:07:57;6.03;;;5.53;;
11238;SDS011;5677;48.488;13.436;2023-06-10T14:10:25;6.67;;;5.97;;
11238;SDS011;5677;48.488;13.436;2023-06-10T14:12:52;6.77;;;6.13;;
11238;SDS011;5677;48.488;13.436;2023-06-10T14:15:18;7.00;;;6.30;;
11238;SDS011;5677;48.488;13.436;2023-06-10T14:17:45;6.80;;;6.20;;
11238;SDS011;5677;48.488;13.436;2023-06-10T14:20:13;6.50;;;5.90;;
11238;SDS011;5677;48.488;13.436;2023-06-10T14:22:40;6.60;;;5.97;;
11238;SDS011;5677;48.488;13.436;2023-06-10T14:25:07;6.33;;;5.73;;
11238;SDS011;5677;48.488;13.436;2023-06-10T14:27:34;7.23;;;6.53;;
11238;SDS011;5677;48.488;13.436;2023-06-10T14:30:01;8.40;;;6.77;;
11238;SDS011;5677;48.488;13.436;2023-06-10T14:32:28;7.40;;;6.70;;
11238;SDS011;5677;48.488;13.436;2023-06-10T14:34:55;7.50;;;6.70;;
11238;SDS011;5677;48.488;13.436;2023-06-10T14:37:23;7.40;;;6.70;;
11238;SDS011;5677;48.488;13.436;2023-06-10T14:39:50;6.80;;;6.20;;
11238;SDS011;5677;48.488;13.436;2023-06-10T14:52:31;7.20;;;6.60;;
11238;SDS011;5677;48.488;13.436;2023-06-10T15:01:41;7.90;;;5.47;;
11238;SDS011;5677;48.488;13.436;2023-06-10T15:04:08;8.53;;;6.20;;
11238;SDS011;5677;48.488;13.436;2023-06-10T15:06:35;9.03;;;6.20;;
11238;SDS011;5677;48.488;13.436;2023-06-10T15:09:03;7.57;;;6.03;;